AKDT,Max TemperatureF,Mean TemperatureF,Min TemperatureF,Max Dew PointF,MeanDew PointF,Min DewpointF,Max Humidity, Mean Humidity, Min Humidity, Max Sea Level PressureIn, Mean Sea Level PressureIn, Min Sea Level PressureIn, Max VisibilityMiles, Mean VisibilityMiles, Min VisibilityMiles, Max Wind SpeedMPH, Mean Wind SpeedMPH, Max Gust SpeedMPH,PrecipitationIn, CloudCover, Events, WindDirDegrees
2012-9-1,44,43,41,42,40,37,0,0,0,29.58,29.54,29.51,10,8,4,16,11,20,0.18,8,Rain,189
2012-9-2,52,46,39,44,41,38,0,0,0,29.60,29.51,29.32,10,10,7,18,10,24,0.18,7,Rain,45
2012-9-3,52,47,42,50,46,42,0,0,0,29.29,29.14,29.08,10,8,2,24,13,29,0.45,8,Rain,354
2012-9-4,48,44,40,46,41,37,0,0,0,29.42,29.28,29.04,10,8,3,25,15,31,0.30,8,Rain,131
2012-9-5,50,48,46,47,46,46,0,0,0,29.35,29.13,29.03,10,9,3,15,8,20,0.14,8,Rain,151
2012-9-6,47,43,38,47,39,35,0,0,0,29.86,29.67,29.37,10,10,9,20,9,24,0.07,8,Rain,269
2012-9-7,49,42,35,40,37,33,0,0,0,29.98,29.92,29.86,10,10,10,16,6,18,T,6,,326
2012-9-8,46,41,36,40,36,34,0,0,0,30.09,30.05,29.99,10,10,10,13,6,15,0.02,4,Rain,9
2012-9-9,46,40,33,36,33,31,0,0,0,30.10,30.07,30.03,10,10,10,9,4,12,0.00,5,,276
2012-9-10,48,40,31,36,32,28,0,0,0,30.03,29.96,29.88,10,10,10,13,6,15,0.00,4,,30
2012-9-11,54,45,35,37,29,23,0,0,0,29.88,29.85,29.81,10,10,10,18,8,22,0.00,3,,33
2012-9-12,52,42,32,35,27,22,0,0,0,29.94,29.87,29.83,10,10,10,20,8,23,0.00,5,,10
2012-9-13,50,41,31,39,32,28,0,0,0,29.95,29.90,29.82,10,10,10,13,4,15,0.00,5,,289
2012-9-14,48,40,32,35,30,26,0,0,0,29.84,29.83,29.81,10,10,9,14,8,18,0.01,3,Rain,4
2012-9-15,45,38,30,30,28,26,0,0,0,29.85,29.77,29.60,10,10,10,17,8,21,0.00,3,,358
2012-9-16,40,37,33,37,32,25,0,0,0,29.58,29.16,28.93,10,9,3,30,17,38,0.41,6,Rain,2
2012-9-17,40,35,29,37,34,29,0,0,0,29.56,29.28,28.96,10,10,8,23,12,28,T,7,Rain,286
2012-9-18,44,37,29,43,35,26,0,0,0,29.55,29.39,29.33,10,9,3,16,9,21,0.09,7,Rain-Snow,37
2012-9-19,46,44,42,45,42,39,0,0,0,29.47,29.37,29.34,10,9,2,13,6,15,0.13,8,Rain,111
2012-9-20,46,43,39,41,39,36,0,0,0,29.69,29.61,29.49,10,10,10,9,3,10,0.00,8,,80
2012-9-21,45,41,36,39,35,33,0,0,0,29.79,29.75,29.69,10,10,7,17,7,21,T,8,Rain,48
2012-9-22,45,41,36,36,34,32,0,0,0,29.69,29.45,29.30,10,10,10,20,11,25,0.03,7,Rain,340
2012-9-23,38,36,33,36,34,28,0,0,0,29.76,29.50,29.29,10,9,5,29,17,36,0.02,8,Rain-Snow,280
2012-9-24,40,35,30,31,26,22,0,0,0,29.93,29.88,29.76,10,10,7,23,7,28,0.01,7,Snow,299
2012-9-25,43,37,30,25,23,20,0,0,0,29.87,29.72,29.52,10,10,10,30,14,36,0.00,5,,13
2012-9-26,43,39,35,28,24,22,0,0,0,29.51,29.48,29.44,10,10,10,38,24,49,0.00,2,,357
2012-9-27,38,34,30,30,24,20,0,0,0,29.52,29.46,29.42,10,10,6,28,15,36,T,4,Snow,324
2012-9-28,38,33,27,30,27,24,0,0,0,29.60,29.54,29.52,10,10,8,20,11,23,T,6,Snow,303
2012-9-29,39,34,28,27,25,23,0,0,0,29.83,29.70,29.61,10,10,10,12,6,13,0.00,3,,278
2012-9-30,36,33,29,32,29,24,0,0,0,29.93,29.90,29.84,10,9,4,16,8,21,0.02,7,Snow,133